sensor_id;sensor_type;location;lat;lon;timestamp;pressure;altitude;pressure_sealevel;temperature;humidity
21359;BME280;13506;50.852;20.632;2023-12-14T00:01:36;96931.59;;;5.47;100.00
21359;BME280;13506;50.852;20.632;2023-12-14T00:04:06;96948.63;;;5.50;100.00
21359;BME280;13506;50.852;20.632;2023-12-14T00:06:36;96942.47;;;5.53;100.00
21359;BME280;13506;50.852;20.632;2023-12-14T00:09:04;96952.94;;;5.35;100.00
21359;BME280;13506;50.852;20.632;2023-12-14T00:11:32;96937.41;;;5.37;100.00
21359;BME280;13506;50.852;20.632;2023-12-14T00:14:00;96941.72;;;5.36;100.00
21359;BME280;13506;50.852;20.632;2023-12-14T00:16:27;96933.19;;;5.36;100.00
21359;BME280;13506;50.852;20.632;2023-12-14T00:18:55;96939.81;;;5.40;100.00
21359;BME280;13506;50.852;20.632;2023-12-14T00:21:23;96934.66;;;5.40;100.00
21359;BME280;13506;50.852;20.632;2023-12-14T00:23:53;96946.41;;;5.15;100.00
21359;BME280;13506;50.852;20.632;2023-12-14T00:26:20;96952.84;;;5.22;100.00
21359;BME280;13506;50.852;20.632;2023-12-14T00:28:48;96953.97;;;5.33;100.00
21359;BME280;13506;50.852;20.632;2023-12-14T00:31:16;96949.91;;;5.43;100.00
21359;BME280;13506;50.852;20.632;2023-12-14T00:33:44;96958.41;;;5.45;100.00
21359;BME280;13506;50.852;20.632;2023-12-14T00:36:18;96953.53;;;5.55;100.00
21359;BME280;13506;50.852;20.632;2023-12-14T00:38:46;96962.81;;;5.57;100.00
21359;BME280;13506;50.852;20.632;2023-12-14T00:41:15;96952.50;;;5.57;100.00
21359;BME280;13506;50.852;20.632;2023-12-14T00:43:43;96958.94;;;5.64;100.00
21359;BME280;13506;50.852;20.632;2023-12-14T00:46:11;96973.59;;;5.64;100.00
21359;BME280;13506;50.852;20.632;2023-12-14T00:48:39;96968.97;;;5.69;100.00
21359;BME280;13506;50.852;20.632;2023-12-14T00:51:06;96969.91;;;5.68;100.00
21359;BME280;13506;50.852;20.632;2023-12-14T00:53:34;96969.19;;;5.66;100.00
21359;BME280;13506;50.852;20.632;2023-12-14T00:56:03;96963.81;;;5.69;100.00
21359;BME280;13506;50.852;20.632;2023-12-14T00:58:32;96976.63;;;5.70;100.00
21359;BME280;13506;50.852;20.632;2023-12-14T01:01:00;96972.75;;;5.78;100.00
21359;BME280;13506;50.852;20.632;2023-12-14T01:03:28;96978.63;;;5.80;100.00
21359;BME280;13506;50.852;20.632;2023-12-14T01:05:56;96976.19;;;5.78;100.00
21359;BME280;13506;50.852;20.632;2023-12-14T01:08:24;96972.38;;;5.84;100.00
21359;BME280;13506;50.852;20.632;2023-12-14T01:10:52;96978.56;;;5.81;100.00
21359;BME280;13506;50.852;20.632;2023-12-14T01:13:20;96983.63;;;5.83;100.00
21359;BME280;13506;50.852;20.632;2023-12-14T01:15:49;96977.91;;;5.78;100.00
21359;BME280;13506;50.852;20.632;2023-12-14T01:18:17;96975.25;;;5.79;100.00
21359;BME280;13506;50.852;20.632;2023-12-14T01:20:45;96975.31;;;5.78;100.00
21359;BME280;13506;50.852;20.632;2023-12-14T01:23:13;96974.41;;;5.79;100.00
21359;BME280;13506;50.852;20.632;2023-12-14T01:25:41;96966.03;;;5.75;100.00
21359;BME280;13506;50.852;20.632;2023-12-14T01:28:09;96977.16;;;5.76;100.00
21359;BME280;13506;50.852;20.632;2023-12-14T01:30:37;96983.63;;;5.83;100.00
21359;BME280;13506;50.852;20.632;2023-12-14T01:33:06;96972.38;;;5.84;100.00
21359;BME280;13506;50.852;20.632;2023-12-14T01:35:34;96987.59;;;5.88;100.00
21359;BME280;13506;50.852;20.632;2023-12-14T01:38:02;96989.03;;;5.92;100.00
21359;BME280;13506;50.852;20.632;2023-12-14T01:40:30;96992.75;;;5.88;100.00
21359;BME280;13506;50.852;20.632;2023-12-14T01:43:07;96987.31;;;5.93;100.00
21359;BME280;13506;50.852;20.632;2023-12-14T01:45:35;96979.94;;;5.87;100.00
21359;BME280;13506;50.852;20.632;2023-12-14T01:48:05;96989.25;;;5.89;100.00
21359;BME280;13506;50.852;20.632;2023-12-14T01:50:33;96994.13;;;5.80;100.00
21359;BME280;13506;50.852;20.632;2023-12-14T01:53:01;96988.13;;;5.79;100.00
21359;BME280;13506;50.852;20.632;2023-12-14T01:55:29;97003.09;;;5.74;100.00
21359;BME280;13506;50.852;20.632;2023-12-14T01:57:57;96991.94;;;5.74;100.00
21359;BME280;13506;50.852;20.632;2023-12-14T02:00:34;96999.75;;;5.72;100.00
21359;BME280;13506;50.852;20.632;2023-12-14T02:03:05;96993.03;;;5.69;100.00
21359;BME280;13506;50.852;20.632;2023-12-14T02:05:33;96983.53;;;5.70;100.00
21359;BME280;13506;50.852;20.632;2023-12-14T02:08:01;96988.63;;;5.71;100.00
21359;BME280;13506;50.852;20.632;2023-12-14T02:10:28;96987.41;;;5.77;100.00
21359;BME280;13506;50.852;20.632;2023-12-14T02:12:56;96994.13;;;5.80;100.00
21359;BME280;13506;50.852;20.632;2023-12-14T02:15:23;96984.19;;;5.74;100.00
21359;BME280;13506;50.852;20.632;2023-12-14T02:17:51;96997.81;;;5.76;100.00
21359;BME280;13506;50.852;20.632;2023-12-14T02:20:21;96995.78;;;5.81;100.00
21359;BME280;13506;50.852;20.632;2023-12-14T02:22:51;96992.09;;;5.85;100.00
21359;BME280;13506;50.852;20.632;2023-12-14T02:25:21;96994.31;;;5.77;100.00
21359;BME280;13506;50.852;20.632;2023-12-14T02:27:49;97002.44;;;5.85;100.00
21359;BME280;13506;50.852;20.632;2023-12-14T02:30:18;97000.97;;;5.81;100.00
21359;BME280;13506;50.852;20.632;2023-12-14T02:32:46;96997.28;;;5.85;100.00
21359;BME280;13506;50.852;20.632;2023-12-14T02:35:14;97001.25;;;5.90;100.00
21359;BME280;13506;50.852;20.632;2023-12-14T02:37:42;96994.31;;;5.91;100.00
21359;BME280;13506;50.852;20.632;2023-12-14T02:40:11;96990.19;;;5.88;100.00
21359;BME280;13506;50.852;20.632;2023-12-14T02:42:39;97007.03;;;5.94;100.00
21359;BME280;13506;50.852;20.632;2023-12-14T02:45:09;97007.97;;;5.93;100.00
21359;BME280;13506;50.852;20.632;2023-12-14T02:47:37;97006.03;;;5.97;100.00
21359;BME280;13506;50.852;20.632;2023-12-14T02:50:05;97006.97;;;5.96;100.00
21359;BME280;13506;50.852;20.632;2023-12-14T02:52:33;97012.78;;;5.99;100.00
21359;BME280;13506;50.852;20.632;2023-12-14T02:55:01;97012.47;;;5.89;100.00
21359;BME280;13506;50.852;20.632;2023-12-14T02:57:31;97018.94;;;5.97;100.00
21359;BME280;13506;50.852;20.632;2023-12-14T02:59:58;97017.09;;;5.99;100.00
21359;BME280;13506;50.852;20.632;2023-12-14T03:02:27;97022.38;;;5.97;100.00
21359;BME280;13506;50.852;20.632;2023-12-14T03:04:55;97019.66;;;5.99;100.00
21359;BME280;13506;50.852;20.632;2023-12-14T03:07:23;97033.44;;;5.99;100.00
21359;BME280;13506;50.852;20.632;2023-12-14T03:09:50;97021.13;;;6.03;100.00
21359;BME280;13506;50.852;20.632;2023-12-14T03:12:19;97028.06;;;6.02;100.00
21359;BME280;13506;50.852;20.632;2023-12-14T03:14:48;97028.81;;;6.04;100.00
21359;BME280;13506;50.852;20.632;2023-12-14T03:17:16;97033.13;;;6.04;100.00
21359;BME280;13506;50.852;20.632;2023-12-14T03:19:44;97038.31;;;6.04;100.00
21359;BME280;13506;50.852;20.632;2023-12-14T03:22:12;97036.34;;;6.07;100.00
21359;BME280;13506;50.852;20.632;2023-12-14T03:24:40;97042.66;;;6.03;100.00
21359;BME280;13506;50.852;20.632;2023-12-14T03:27:08;97042.34;;;6.08;100.00
21359;BME280;13506;50.852;20.632;2023-12-14T03:29:36;97045.97;;;6.05;100.00
21359;BME280;13506;50.852;20.632;2023-12-14T03:32:05;97052.78;;;6.06;100.00
21359;BME280;13506;50.852;20.632;2023-12-14T03:34:32;97054.81;;;6.01;100.00
21359;BME280;13506;50.852;20.632;2023-12-14T03:37:00;97063.09;;;6.06;100.00
21359;BME280;13506;50.852;20.632;2023-12-14T03:39:30;97066.75;;;5.88;100.00
21359;BME280;13506;50.852;20.632;2023-12-14T03:41:58;97072.38;;;5.80;100.00
21359;BME280;13506;50.852;20.632;2023-12-14T03:44:25;97057.44;;;5.71;100.00
21359;BME280;13506;50.852;20.632;2023-12-14T03:46:54;97070.81;;;5.63;100.00
21359;BME280;13506;50.852;20.632;2023-12-14T03:49:25;97078.72;;;5.75;100.00
21359;BME280;13506;50.852;20.632;2023-12-14T03:51:53;97064.06;;;5.75;100.00
21359;BME280;13506;50.852;20.632;2023-12-14T03:54:21;97070.44;;;5.84;100.00
21359;BME280;13506;50.852;20.632;2023-12-14T03:56:49;97073.75;;;5.86;100.00
21359;BME280;13506;50.852;20.632;2023-12-14T03:59:17;97072.38;;;5.80;100.00
21359;BME280;13506;50.852;20.632;2023-12-14T04:01:44;97074.69;;;5.85;100.00
21359;BME280;13506;50.852;20.632;2023-12-14T04:04:12;97081.84;;;5.80;100.00
21359;BME280;13506;50.852;20.632;2023-12-14T04:06:42;97086.47;;;5.89;100.00
21359;BME280;13506;50.852;20.632;2023-12-14T04:09:11;97079.84;;;5.85;100.00
21359;BME280;13506;50.852;20.632;2023-12-14T04:11:39;97097.34;;;5.80;100.00
21359;BME280;13506;50.852;20.632;2023-12-14T04:14:07;97096.16;;;5.85;100.00
21359;BME280;13506;50.852;20.632;2023-12-14T04:16:36;97090.16;;;5.85;100.00
21359;BME280;13506;50.852;20.632;2023-12-14T04:19:04;97101.59;;;5.81;100.00
21359;BME280;13506;50.852;20.632;2023-12-14T04:21:36;97108.59;;;5.79;100.00
21359;BME280;13506;50.852;20.632;2023-12-14T04:24:06;97109.88;;;5.71;100.00
21359;BME280;13506;50.852;20.632;2023-12-14T04:26:35;97110.03;;;5.68;100.00
21359;BME280;13506;50.852;20.632;2023-12-14T04:29:04;97125.72;;;5.65;100.00
21359;BME280;13506;50.852;20.632;2023-12-14T04:34:01;97132.94;;;5.59;100.00
21359;BME280;13506;50.852;20.632;2023-12-14T04:36:29;97122.44;;;5.47;100.00
21359;BME280;13506;50.852;20.632;2023-12-14T04:38:56;97137.97;;;5.46;100.00
21359;BME280;13506;50.852;20.632;2023-12-14T04:41:26;97142.59;;;5.41;100.00
21359;BME280;13506;50.852;20.632;2023-12-14T04:43:53;97155.47;;;5.41;100.00
21359;BME280;13506;50.852;20.632;2023-12-14T04:46:21;97155.22;;;5.45;100.00
21359;BME280;13506;50.852;20.632;2023-12-14T04:48:49;97160.03;;;5.51;100.00
21359;BME280;13506;50.852;20.632;2023-12-14T04:51:17;97161.78;;;5.51;100.00
21359;BME280;13506;50.852;20.632;2023-12-14T04:53:45;97170.81;;;5.58;100.00
21359;BME280;13506;50.852;20.632;2023-12-14T04:56:13;97166.13;;;5.65;100.00
21359;BME280;13506;50.852;20.632;2023-12-14T04:58:43;97175.06;;;5.59;100.00
21359;BME280;13506;50.852;20.632;2023-12-14T05:01:12;97179.16;;;5.63;100.00
21359;BME280;13506;50.852;20.632;2023-12-14T05:03:39;97180.88;;;5.63;100.00
21359;BME280;13506;50.852;20.632;2023-12-14T05:06:08;97198.94;;;5.63;100.00
21359;BME280;13506;50.852;20.632;2023-12-14T05:08:35;97204.28;;;5.60;100.00
21359;BME280;13506;50.852;20.632;2023-12-14T05:11:04;97210.09;;;5.63;100.00
21359;BME280;13506;50.852;20.632;2023-12-14T05:13:32;97202.09;;;5.68;100.00
21359;BME280;13506;50.852;20.632;2023-12-14T05:16:02;97213.59;;;5.62;100.00
21359;BME280;13506;50.852;20.632;2023-12-14T05:18:30;97225.56;;;5.63;100.00
21359;BME280;13506;50.852;20.632;2023-12-14T05:20:58;97220.66;;;5.59;100.00
21359;BME280;13506;50.852;20.632;2023-12-14T05:23:26;97229.41;;;5.56;100.00
21359;BME280;13506;50.852;20.632;2023-12-14T05:25:54;97224.25;;;5.56;100.00
21359;BME280;13506;50.852;20.632;2023-12-14T05:28:22;97224.09;;;5.59;100.00
21359;BME280;13506;50.852;20.632;2023-12-14T05:30:50;97221.25;;;5.48;100.00
21359;BME280;13506;50.852;20.632;2023-12-14T05:33:20;97229.75;;;5.50;100.00
21359;BME280;13506;50.852;20.632;2023-12-14T05:35:48;97231.22;;;5.54;100.00
21359;BME280;13506;50.852;20.632;2023-12-14T05:38:16;97226.59;;;5.45;100.00
21359;BME280;13506;50.852;20.632;2023-12-14T05:40:44;97242.75;;;5.33;100.00
21359;BME280;13506;50.852;20.632;2023-12-14T05:43:12;97240.25;;;5.47;100.00
21359;BME280;13506;50.852;20.632;2023-12-14T05:45:40;97244.09;;;5.40;100.00
21359;BME280;13506;50.852;20.632;2023-12-14T05:48:08;97241.84;;;5.34;100.00
21359;BME280;13506;50.852;20.632;2023-12-14T05:50:37;97242.91;;;5.29;100.00
21359;BME280;13506;50.852;20.632;2023-12-14T05:53:05;97235.53;;;5.23;100.00
21359;BME280;13506;50.852;20.632;2023-12-14T05:55:33;97238.56;;;5.14;100.00
21359;BME280;13506;50.852;20.632;2023-12-14T05:58:01;97243.25;;;5.23;100.00
21359;BME280;13506;50.852;20.632;2023-12-14T06:00:31;97244.91;;;5.24;100.00
21359;BME280;13506;50.852;20.632;2023-12-14T06:02:59;97256.47;;;5.33;100.00
21359;BME280;13506;50.852;20.632;2023-12-14T06:05:28;97253.72;;;5.36;100.00
21359;BME280;13506;50.852;20.632;2023-12-14T06:07:57;97251.22;;;5.35;100.00
21359;BME280;13506;50.852;20.632;2023-12-14T06:10:25;97257.88;;;5.39;100.00
21359;BME280;13506;50.852;20.632;2023-12-14T06:12:53;97262.97;;;5.40;100.00
21359;BME280;13506;50.852;20.632;2023-12-14T06:15:21;97257.38;;;5.48;100.00
21359;BME280;13506;50.852;20.632;2023-12-14T06:17:49;97255.88;;;5.44;100.00
21359;BME280;13506;50.852;20.632;2023-12-14T06:20:17;97266.03;;;5.47;100.00
21359;BME280;13506;50.852;20.632;2023-12-14T06:22:45;97262.38;;;5.51;100.00
21359;BME280;13506;50.852;20.632;2023-12-14T06:25:15;97267.34;;;5.54;100.00
21359;BME280;13506;50.852;20.632;2023-12-14T06:27:43;97274.75;;;5.60;100.00
21359;BME280;13506;50.852;20.632;2023-12-14T06:30:12;97270.19;;;5.65;100.00
21359;BME280;13506;50.852;20.632;2023-12-14T06:32:40;97274.41;;;5.66;100.00
21359;BME280;13506;50.852;20.632;2023-12-14T06:35:08;97275.91;;;5.70;100.00
21359;BME280;13506;50.852;20.632;2023-12-14T06:37:36;97288.47;;;5.77;100.00
21359;BME280;13506;50.852;20.632;2023-12-14T06:40:05;97279.78;;;5.78;100.00
21359;BME280;13506;50.852;20.632;2023-12-14T06:42:35;97291.78;;;5.79;100.00
21359;BME280;13506;50.852;20.632;2023-12-14T06:45:04;97294.28;;;5.80;100.00
21359;BME280;13506;50.852;20.632;2023-12-14T06:47:32;97298.78;;;5.77;100.00
21359;BME280;13506;50.852;20.632;2023-12-14T06:50:00;97297.84;;;5.78;100.00
21359;BME280;13506;50.852;20.632;2023-12-14T06:52:28;97296.78;;;5.82;100.00
21359;BME280;13506;50.852;20.632;2023-12-14T06:54:56;97291.59;;;5.82;100.00
21359;BME280;13506;50.852;20.632;2023-12-14T06:57:24;97293.09;;;5.86;100.00
21359;BME280;13506;50.852;20.632;2023-12-14T06:59:53;97305.19;;;5.85;100.00
21359;BME280;13506;50.852;20.632;2023-12-14T07:02:21;97302.13;;;5.79;100.00
21359;BME280;13506;50.852;20.632;2023-12-14T07:04:49;97295.69;;;5.86;100.00
21359;BME280;13506;50.852;20.632;2023-12-14T07:07:17;97309.34;;;5.88;100.00
21359;BME280;13506;50.852;20.632;2023-12-14T07:09:46;97306.75;;;5.88;100.00
21359;BME280;13506;50.852;20.632;2023-12-14T07:12:14;97307.50;;;5.90;100.00
21359;BME280;13506;50.852;20.632;2023-12-14T07:14:42;97308.25;;;5.92;100.00
21359;BME280;13506;50.852;20.632;2023-12-14T07:17:11;97316.19;;;5.89;100.00
21359;BME280;13506;50.852;20.632;2023-12-14T07:19:39;97323.91;;;5.89;100.00
21359;BME280;13506;50.852;20.632;2023-12-14T07:22:07;97314.22;;;5.92;100.00
21359;BME280;13506;50.852;20.632;2023-12-14T07:24:36;97319.50;;;5.91;100.00
21359;BME280;13506;50.852;20.632;2023-12-14T07:27:05;97317.19;;;5.86;100.00
21359;BME280;13506;50.852;20.632;2023-12-14T07:29:33;97320.25;;;5.93;100.00
21359;BME280;13506;50.852;20.632;2023-12-14T07:32:01;97322.59;;;5.98;100.00
21359;BME280;13506;50.852;20.632;2023-12-14T07:34:30;97332.19;;;5.96;100.00
21359;BME280;13506;50.852;20.632;2023-12-14T07:36:58;97319.94;;;5.99;100.00
21359;BME280;13506;50.852;20.632;2023-12-14T07:39:27;97333.75;;;5.82;100.00
21359;BME280;13506;50.852;20.632;2023-12-14T07:41:55;97333.16;;;5.93;100.00
21359;BME280;13506;50.852;20.632;2023-12-14T07:44:23;97339.09;;;5.95;100.00
21359;BME280;13506;50.852;20.632;2023-12-14T07:46:51;97347.72;;;5.94;100.00
21359;BME280;13506;50.852;20.632;2023-12-14T07:49:20;97343.16;;;5.99;100.00
21359;BME280;13506;50.852;20.632;2023-12-14T07:51:51;97345.56;;;6.02;100.00
21359;BME280;13506;50.852;20.632;2023-12-14T07:54:19;97362.72;;;6.03;100.00
21359;BME280;13506;50.852;20.632;2023-12-14T07:56:47;97362.88;;;6.00;100.00
21359;BME280;13506;50.852;20.632;2023-12-14T07:59:15;97379.88;;;5.88;100.00
21359;BME280;13506;50.852;20.632;2023-12-14T08:01:43;97387.13;;;5.98;100.00
21359;BME280;13506;50.852;20.632;2023-12-14T08:04:11;97382.97;;;5.95;100.00
21359;BME280;13506;50.852;20.632;2023-12-14T08:06:39;97391.28;;;6.00;100.00
21359;BME280;13506;50.852;20.632;2023-12-14T08:09:08;97382.47;;;6.04;100.00
21359;BME280;13506;50.852;20.632;2023-12-14T08:11:37;97397.88;;;6.06;100.00
21359;BME280;13506;50.852;20.632;2023-12-14T08:14:05;97395.09;;;6.09;100.00
21359;BME280;13506;50.852;20.632;2023-12-14T08:16:32;97401.63;;;6.16;100.00
21359;BME280;13506;50.852;20.632;2023-12-14T08:19:01;97395.50;;;6.17;100.00
21359;BME280;13506;50.852;20.632;2023-12-14T08:21:29;97410.84;;;6.20;100.00
21359;BME280;13506;50.852;20.632;2023-12-14T08:23:57;97405.50;;;6.23;100.00
21359;BME280;13506;50.852;20.632;2023-12-14T08:26:27;97422.50;;;6.27;100.00
21359;BME280;13506;50.852;20.632;2023-12-14T08:28:55;97428.22;;;6.32;100.00
21359;BME280;13506;50.852;20.632;2023-12-14T08:31:23;97436.22;;;6.28;100.00
21359;BME280;13506;50.852;20.632;2023-12-14T08:33:53;97436.66;;;6.36;100.00
21359;BME280;13506;50.852;20.632;2023-12-14T08:36:21;97437.19;;;6.41;100.00
21359;BME280;13506;50.852;20.632;2023-12-14T08:38:49;97439.06;;;6.39;100.00
21359;BME280;13506;50.852;20.632;2023-12-14T08:41:17;97437.06;;;6.44;100.00
21359;BME280;13506;50.852;20.632;2023-12-14T08:43:46;97444.81;;;6.44;100.00
21359;BME280;13506;50.852;20.632;2023-12-14T08:46:14;97447.03;;;6.50;100.00
21359;BME280;13506;50.852;20.632;2023-12-14T08:48:42;97452.97;;;6.52;100.00
21359;BME280;13506;50.852;20.632;2023-12-14T08:51:10;97453.44;;;6.59;100.00
21359;BME280;13506;50.852;20.632;2023-12-14T08:53:39;97460.19;;;6.62;100.00
21359;BME280;13506;50.852;20.632;2023-12-14T08:56:09;97460.38;;;6.59;100.00
21359;BME280;13506;50.852;20.632;2023-12-14T08:58:37;97467.94;;;6.62;100.00
21359;BME280;13506;50.852;20.632;2023-12-14T09:01:06;97472.28;;;6.61;100.00
21359;BME280;13506;50.852;20.632;2023-12-14T09:03:34;97482.44;;;6.64;100.00
21359;BME280;13506;50.852;20.632;2023-12-14T09:06:02;97474.44;;;6.69;100.00
21359;BME280;13506;50.852;20.632;2023-12-14T09:08:31;97490.09;;;6.66;100.00
21359;BME280;13506;50.852;20.632;2023-12-14T09:10:59;97484.84;;;6.67;100.00
21359;BME280;13506;50.852;20.632;2023-12-14T09:13:27;97483.09;;;6.68;100.00
21359;BME280;13506;50.852;20.632;2023-12-14T09:15:55;97479.50;;;6.70;100.00
21359;BME280;13506;50.852;20.632;2023-12-14T09:18:25;97480.44;;;6.69;100.00
21359;BME280;13506;50.852;20.632;2023-12-14T09:20:53;97492.47;;;6.55;100.00
21359;BME280;13506;50.852;20.632;2023-12-14T09:23:21;97489.34;;;6.64;100.00
21359;BME280;13506;50.852;20.632;2023-12-14T09:25:50;97489.34;;;6.64;100.00
21359;BME280;13506;50.852;20.632;2023-12-14T09:28:18;97491.94;;;6.64;100.00
21359;BME280;13506;50.852;20.632;2023-12-14T09:30:45;97491.19;;;6.62;100.00
21359;BME280;13506;50.852;20.632;2023-12-14T09:33:13;97483.22;;;6.50;100.00
21359;BME280;13506;50.852;20.632;2023-12-14T09:35:43;97487.78;;;6.61;100.00
21359;BME280;13506;50.852;20.632;2023-12-14T09:38:11;97474.78;;;6.63;100.00
21359;BME280;13506;50.852;20.632;2023-12-14T09:40:44;97496.94;;;6.67;100.00
21359;BME280;13506;50.852;20.632;2023-12-14T09:43:12;97491.94;;;6.64;100.00
21359;BME280;13506;50.852;20.632;2023-12-14T09:48:51;97493.09;;;6.58;100.00
21359;BME280;13506;50.852;20.632;2023-12-14T09:51:22;97497.03;;;6.65;100.00
21359;BME280;13506;50.852;20.632;2023-12-14T09:53:50;97507.19;;;6.68;100.00
21359;BME280;13506;50.852;20.632;2023-12-14T09:56:24;97508.78;;;6.71;100.00
21359;BME280;13506;50.852;20.632;2023-12-14T09:58:52;97516.53;;;6.71;100.00
21359;BME280;13506;50.852;20.632;2023-12-14T10:01:24;97520.97;;;6.69;100.00
21359;BME280;13506;50.852;20.632;2023-12-14T10:04:07;97514.44;;;6.62;100.00
21359;BME280;13506;50.852;20.632;2023-12-14T10:06:38;97525.53;;;6.64;100.00
21359;BME280;13506;50.852;20.632;2023-12-14T10:09:07;97511.63;;;6.50;100.00
21359;BME280;13506;50.852;20.632;2023-12-14T10:11:36;97525.63;;;6.46;100.00
21359;BME280;13506;50.852;20.632;2023-12-14T10:14:18;97538.22;;;6.52;100.00
21359;BME280;13506;50.852;20.632;2023-12-14T10:16:48;97531.28;;;6.53;100.00
21359;BME280;13506;50.852;20.632;2023-12-14T10:19:17;97540.81;;;6.52;100.00
21359;BME280;13506;50.852;20.632;2023-12-14T10:21:50;97538.69;;;6.43;100.00
21359;BME280;13506;50.852;20.632;2023-12-14T10:24:18;97534.47;;;6.42;100.00
21359;BME280;13506;50.852;20.632;2023-12-14T10:26:47;97544.22;;;6.37;100.00
21359;BME280;13506;50.852;20.632;2023-12-14T10:29:15;97535.13;;;6.30;100.00
21359;BME280;13506;50.852;20.632;2023-12-14T10:31:44;97538.31;;;6.35;100.00
21359;BME280;13506;50.852;20.632;2023-12-14T10:34:11;97528.13;;;6.32;100.00
21359;BME280;13506;50.852;20.632;2023-12-14T10:36:41;97539.88;;;6.38;100.00
21359;BME280;13506;50.852;20.632;2023-12-14T10:39:15;97535.22;;;6.44;100.00
21359;BME280;13506;50.852;20.632;2023-12-14T10:41:47;97546.03;;;6.51;100.00
21359;BME280;13506;50.852;20.632;2023-12-14T10:44:15;97554.63;;;6.51;100.00
21359;BME280;13506;50.852;20.632;2023-12-14T10:46:47;97567.31;;;6.56;100.00
21359;BME280;13506;50.852;20.632;2023-12-14T10:49:16;97557.97;;;6.53;100.00
21359;BME280;13506;50.852;20.632;2023-12-14T10:51:46;97550.94;;;6.56;100.00
21359;BME280;13506;50.852;20.632;2023-12-14T10:54:17;97561.97;;;6.59;100.00
21359;BME280;13506;50.852;20.632;2023-12-14T10:56:46;97558.28;;;6.47;100.00
21359;BME280;13506;50.852;20.632;2023-12-14T10:59:16;97561.81;;;6.46;100.00
21359;BME280;13506;50.852;20.632;2023-12-14T11:01:44;97563.44;;;6.47;100.00
21359;BME280;13506;50.852;20.632;2023-12-14T11:04:12;97569.94;;;6.39;100.00
21359;BME280;13506;50.852;20.632;2023-12-14T11:06:46;97572.47;;;6.40;100.00
21359;BME280;13506;50.852;20.632;2023-12-14T11:09:18;97576.63;;;6.43;100.00
21359;BME280;13506;50.852;20.632;2023-12-14T11:11:56;97562.63;;;6.31;100.00
21359;BME280;13506;50.852;20.632;2023-12-14T11:14:26;97578.06;;;6.48;100.00
21359;BME280;13506;50.852;20.632;2023-12-14T11:16:55;97573.47;;;6.38;100.00
21359;BME280;13506;50.852;20.632;2023-12-14T11:19:26;97577.06;;;6.35;100.00
21359;BME280;13506;50.852;20.632;2023-12-14T11:22:23;97586.31;;;6.39;100.00
21359;BME280;13506;50.852;20.632;2023-12-14T11:24:54;97593.69;;;6.45;100.00
21359;BME280;13506;50.852;20.632;2023-12-14T11:27:30;97584.03;;;6.49;100.00
21359;BME280;13506;50.852;20.632;2023-12-14T11:29:58;97591.47;;;6.55;100.00
21359;BME280;13506;50.852;20.632;2023-12-14T11:32:27;97594.72;;;6.59;100.00
21359;BME280;13506;50.852;20.632;2023-12-14T11:34:56;97597.31;;;6.59;100.00
21359;BME280;13506;50.852;20.632;2023-12-14T11:37:25;97590.47;;;6.58;100.00
21359;BME280;13506;50.852;20.632;2023-12-14T11:39:55;97589.56;;;6.59;100.00
21359;BME280;13506;50.852;20.632;2023-12-14T11:42:23;97597.31;;;6.59;100.00
21359;BME280;13506;50.852;20.632;2023-12-14T11:44:52;97584.81;;;6.35;100.00
21359;BME280;13506;50.852;20.632;2023-12-14T11:47:20;97594.31;;;6.50;100.00
21359;BME280;13506;50.852;20.632;2023-12-14T11:49:47;97592.53;;;6.51;100.00
21359;BME280;13506;50.852;20.632;2023-12-14T11:52:17;97605.53;;;6.49;100.00
21359;BME280;13506;50.852;20.632;2023-12-14T11:54:45;97603.13;;;6.46;100.00
21359;BME280;13506;50.852;20.632;2023-12-14T11:57:16;97594.56;;;6.46;100.00
21359;BME280;13506;50.852;20.632;2023-12-14T11:59:45;97597.91;;;6.48;100.00
21359;BME280;13506;50.852;20.632;2023-12-14T12:02:23;97598.28;;;6.40;100.00
21359;BME280;13506;50.852;20.632;2023-12-14T12:04:52;97593.38;;;6.36;100.00
21359;BME280;13506;50.852;20.632;2023-12-14T12:07:20;97604.28;;;6.25;100.00
21359;BME280;13506;50.852;20.632;2023-12-14T12:09:48;97600.63;;;6.29;100.00
21359;BME280;13506;50.852;20.632;2023-12-14T12:12:17;97608.94;;;6.34;100.00
21359;BME280;13506;50.852;20.632;2023-12-14T12:14:47;97612.78;;;6.27;100.00
21359;BME280;13506;50.852;20.632;2023-12-14T12:17:16;97610.97;;;6.11;100.00
21359;BME280;13506;50.852;20.632;2023-12-14T12:19:46;97614.63;;;6.07;100.00
21359;BME280;13506;50.852;20.632;2023-12-14T12:22:14;97629.06;;;6.11;100.00
21359;BME280;13506;50.852;20.632;2023-12-14T12:24:41;97623.75;;;6.15;100.00
21359;BME280;13506;50.852;20.632;2023-12-14T12:27:10;97630.50;;;6.17;100.00
21359;BME280;13506;50.852;20.632;2023-12-14T12:29:39;97628.41;;;6.24;100.00
21359;BME280;13506;50.852;20.632;2023-12-14T12:32:07;97637.69;;;6.28;100.00
21359;BME280;13506;50.852;20.632;2023-12-14T12:34:35;97634.91;;;6.15;100.00
21359;BME280;13506;50.852;20.632;2023-12-14T12:37:03;97635.84;;;6.30;100.00
21359;BME280;13506;50.852;20.632;2023-12-14T12:39:31;97637.69;;;6.28;100.00
21359;BME280;13506;50.852;20.632;2023-12-14T12:42:04;97635.09;;;6.28;100.00
21359;BME280;13506;50.852;20.632;2023-12-14T12:44:32;97644.97;;;6.37;100.00
21359;BME280;13506;50.852;20.632;2023-12-14T12:47:01;97644.03;;;6.38;100.00
21359;BME280;13506;50.852;20.632;2023-12-14T12:49:31;97635.47;;;6.38;100.00
21359;BME280;13506;50.852;20.632;2023-12-14T12:51:59;97652.63;;;6.39;100.00
21359;BME280;13506;50.852;20.632;2023-12-14T12:54:27;97649.13;;;6.40;100.00
21359;BME280;13506;50.852;20.632;2023-12-14T12:56:55;97656.78;;;6.41;100.00
21359;BME280;13506;50.852;20.632;2023-12-14T12:59:22;97655.31;;;6.37;100.00
21359;BME280;13506;50.852;20.632;2023-12-14T13:01:50;97656.94;;;6.38;100.00
21359;BME280;13506;50.852;20.632;2023-12-14T13:04:20;97677.63;;;6.38;100.00